createdAt,value
2023-06-19T04:18:06.133Z,15.01
2023-06-19T04:21:09.623Z,15.12
2023-06-19T04:24:12.373Z,15.33
2023-06-19T04:27:15.319Z,15.53
2023-06-19T04:30:17.966Z,15.63
2023-06-19T04:33:22.421Z,15.75
2023-06-19T04:36:25.362Z,15.80
2023-06-19T04:39:28.203Z,15.87
2023-06-19T04:42:30.814Z,16.13
2023-06-19T04:45:33.804Z,16.38
2023-06-19T04:48:37.728Z,16.69
2023-06-19T04:51:42.452Z,16.89
2023-06-19T04:54:45.046Z,17.01
2023-06-19T04:57:48.052Z,17.25
2023-06-19T05:00:54.204Z,17.32
2023-06-19T05:03:57.748Z,17.52
2023-06-19T05:07:00.765Z,17.60
2023-06-19T05:10:03.702Z,17.78
2023-06-19T05:13:06.217Z,18.06
2023-06-19T05:16:09.107Z,18.45
2023-06-19T05:19:11.623Z,18.56
2023-06-19T05:22:14.693Z,18.99
2023-06-19T05:25:17.290Z,19.54
2023-06-19T05:28:20.226Z,20.46
2023-06-19T05:31:22.901Z,21.02
2023-06-19T05:38:04.089Z,20.42
2023-06-19T05:41:08.119Z,21.59
2023-06-19T05:44:11.014Z,23.91
2023-06-19T05:47:14.036Z,26.45
2023-06-19T06:01:54.264Z,29.41
2023-06-19T06:04:57.705Z,29.87
2023-06-19T06:08:00.662Z,31.58
2023-06-19T06:11:03.572Z,32.50
2023-06-19T06:14:06.112Z,33.70
2023-06-19T06:17:09.049Z,34.39
2023-06-19T06:20:14.538Z,33.47
2023-06-19T06:23:17.496Z,33.08
2023-06-19T06:26:20.284Z,32.32
2023-06-19T06:29:23.172Z,33.82
2023-06-19T06:32:26.037Z,34.30
2023-06-19T06:35:32.064Z,32.48
2023-06-19T06:38:34.638Z,29.29
2023-06-19T06:41:38.022Z,28.35
2023-06-19T06:44:40.982Z,27.90
2023-06-19T06:47:43.871Z,27.42
2023-06-19T06:50:46.523Z,26.85
2023-06-19T06:53:49.379Z,26.48
2023-06-19T06:56:53.880Z,26.78
2023-06-19T06:59:56.731Z,26.84
2023-06-19T07:02:59.521Z,26.63
2023-06-19T07:06:03.958Z,25.33
2023-06-19T07:09:06.599Z,25.66
2023-06-19T07:12:09.670Z,25.86
2023-06-19T07:15:13.128Z,26.43
2023-06-19T07:18:16.002Z,27.03
2023-06-19T07:21:18.707Z,27.49
2023-06-19T07:24:24.925Z,26.51
2023-06-19T07:27:33.620Z,26.49
2023-06-19T07:30:36.428Z,26.89
2023-06-19T07:33:39.890Z,27.55
2023-06-19T07:36:44.559Z,28.10
2023-06-19T07:39:51.246Z,27.62
2023-06-19T07:42:54.136Z,27.82
2023-06-19T07:45:56.777Z,28.07
2023-06-19T07:48:59.693Z,27.22
2023-06-19T07:52:02.834Z,27.10
2023-06-19T07:55:06.235Z,27.56
2023-06-19T07:58:08.909Z,28.03
2023-06-19T08:01:12.085Z,28.69
2023-06-19T08:04:15.038Z,29.21
2023-06-19T08:07:18.213Z,29.12
2023-06-19T08:10:21.138Z,30.01
2023-06-19T08:13:23.719Z,29.29
2023-06-19T08:16:27.284Z,29.78
2023-06-19T08:19:31.910Z,30.15
2023-06-19T08:22:37.052Z,30.17
2023-06-19T08:36:32.291Z,29.55
2023-06-19T08:39:36.957Z,30.31
2023-06-19T08:42:40.952Z,30.77
2023-06-19T08:46:15.773Z,31.17
2023-06-19T08:49:18.514Z,31.99
2023-06-19T08:52:21.972Z,32.50
2023-06-19T08:55:24.924Z,32.50
2023-06-19T08:58:28.451Z,32.43
2023-06-19T09:01:31.111Z,32.53
2023-06-19T09:04:35.009Z,33.14
2023-06-19T09:07:37.648Z,33.64
2023-06-19T09:10:40.578Z,32.83
2023-06-19T09:13:43.060Z,33.64
2023-06-19T09:16:45.932Z,33.46
2023-06-19T09:19:50.222Z,33.41
2023-06-19T09:22:59.120Z,34.38
2023-06-19T09:26:01.730Z,34.77
2023-06-19T09:29:20.225Z,35.12
2023-06-19T09:32:26.848Z,35.64
2023-06-19T09:35:29.753Z,35.92
2023-06-19T09:38:42.100Z,34.17
2023-06-19T09:41:48.574Z,33.81
2023-06-19T09:44:55.643Z,34.52
2023-06-19T09:47:58.612Z,35.15
2023-06-19T09:51:24.527Z,35.30
2023-06-19T09:54:28.099Z,35.63
2023-06-19T09:57:31.334Z,36.29
2023-06-19T10:00:35.851Z,35.63
2023-06-19T10:03:39.125Z,34.71
2023-06-19T10:06:48.579Z,33.87
2023-06-19T10:10:01.265Z,34.74
2023-06-19T10:13:14.609Z,35.23
2023-06-19T10:16:22.727Z,34.57
2023-06-19T10:49:25.247Z,33.54
2023-06-19T10:52:31.588Z,33.05
2023-06-19T10:55:36.460Z,33.18
2023-06-19T10:58:39.632Z,33.34
2023-06-19T11:01:45.281Z,33.32
2023-06-19T11:04:48.240Z,33.01
2023-06-19T11:08:00.741Z,35.00
2023-06-19T11:11:04.314Z,34.10
2023-06-19T11:14:07.531Z,33.73
2023-06-19T11:17:10.787Z,34.58
2023-06-19T11:20:17.319Z,33.90
2023-06-19T11:23:28.085Z,33.31
2023-06-19T11:26:35.720Z,33.50
2023-06-19T11:29:38.607Z,33.86
2023-06-19T11:32:45.809Z,34.09
2023-06-19T11:35:58.377Z,33.91
2023-06-19T11:39:01.988Z,34.28
2023-06-19T11:42:05.324Z,34.67
2023-06-19T11:48:59.461Z,34.74
2023-06-19T11:52:09.459Z,34.09
2023-06-19T11:55:12.308Z,33.85
2023-06-19T11:58:16.499Z,33.67
2023-06-19T12:01:19.081Z,33.60
2023-06-19T12:04:22.596Z,33.55
2023-06-19T12:07:26.648Z,33.14
2023-06-19T12:10:29.983Z,33.33
2023-06-19T12:13:32.467Z,32.91
2023-06-19T12:16:35.370Z,33.73
2023-06-19T12:19:37.954Z,34.06
2023-06-19T12:22:41.502Z,32.97
2023-06-19T12:25:44.414Z,32.20
2023-06-19T12:28:47.673Z,33.10
2023-06-19T12:31:50.294Z,32.56
2023-06-19T12:34:55.086Z,32.90
2023-06-19T12:37:57.740Z,33.38
2023-06-19T12:41:00.584Z,32.46
2023-06-19T12:44:03.300Z,32.38
2023-06-19T12:47:06.815Z,32.13
2023-06-19T12:50:10.084Z,32.34
2023-06-19T12:53:13.091Z,32.81
2023-06-19T12:56:16.092Z,32.30
2023-06-19T12:59:19.543Z,32.70
2023-06-19T13:02:22.379Z,32.85
2023-06-19T13:05:25.367Z,32.47
2023-06-19T13:08:27.933Z,32.83
2023-06-19T13:11:30.816Z,32.22
2023-06-19T13:14:33.402Z,32.53
2023-06-19T13:17:36.396Z,32.62
2023-06-19T13:20:39.041Z,32.65
2023-06-19T13:23:42.004Z,31.90
2023-06-19T13:26:45.532Z,31.78
2023-06-19T13:48:36.021Z,31.26
2023-06-19T13:51:38.983Z,31.64
2023-06-19T13:54:41.850Z,31.63
2023-06-19T13:57:44.756Z,31.53
2023-06-19T14:00:47.320Z,31.89
2023-06-19T14:03:50.370Z,31.96
2023-06-19T14:06:52.984Z,32.09
2023-06-19T14:09:55.857Z,31.88
2023-06-19T14:12:58.993Z,31.02
2023-06-19T14:16:02.905Z,31.60
2023-06-19T14:19:05.433Z,30.98
2023-06-19T14:22:08.360Z,31.21
2023-06-19T14:25:10.971Z,31.28
2023-06-19T14:28:16.172Z,31.52
2023-06-19T14:31:18.713Z,30.82
2023-06-19T14:34:21.728Z,30.39
2023-06-19T14:37:24.429Z,30.36
